Time;durP1;ratioP1;P1;durP2;ratioP2;P2;SDS_P1;SDS_P2;PMS_P1;PMS_P2;Temp;Humidity;BMP_temperature;BMP_pressure;BME280_temperature;BME280_humidity;BME280_pressure;Samples;Min_cycle;Max_cycle;Signal;HPM_P1;HPM_P2
2022/12/10 00:01:08;;;;;;;32.70;14.47;;;-1.40;99.90;;;;;;5058959;28;20660;-67
2022/12/10 00:03:34;;;;;;;22.50;13.97;;;-1.40;99.90;;;;;;5056796;28;20265;-67
2022/12/10 00:06:01;;;;;;;16.50;14.07;;;-1.40;99.90;;;;;;5073957;28;20780;-66
2022/12/10 00:08:27;;;;;;;18.97;12.67;;;-1.50;99.90;;;;;;5071524;28;20181;-66
2022/12/10 00:10:52;;;;;;;24.80;14.73;;;-1.50;99.90;;;;;;5052724;28;20261;-66
2022/12/10 00:13:18;;;;;;;20.20;13.67;;;-1.50;99.90;;;;;;5053574;28;20186;-66
2022/12/10 00:15:43;;;;;;;20.20;13.93;;;-1.50;99.90;;;;;;5073917;28;20531;-66
2022/12/10 00:18:09;;;;;;;17.63;12.70;;;-1.50;99.90;;;;;;5073406;28;20301;-67
2022/12/10 00:20:36;;;;;;;26.97;13.93;;;-1.60;99.90;;;;;;5053500;28;20183;-67
2022/12/10 00:23:02;;;;;;;15.90;13.33;;;-1.60;99.90;;;;;;5053302;28;20221;-67
2022/12/10 00:25:27;;;;;;;12.03;10.93;;;-1.60;99.90;;;;;;5070873;28;20174;-67
2022/12/10 00:27:53;;;;;;;15.20;12.07;;;-1.60;99.90;;;;;;5073330;28;20173;-67
2022/12/10 00:30:19;;;;;;;12.43;11.30;;;-1.60;99.90;;;;;;5055866;28;20194;-67
2022/12/10 00:32:44;;;;;;;12.77;11.53;;;-1.60;99.90;;;;;;5053112;28;20222;-67
2022/12/10 00:35:10;;;;;;;17.47;14.37;;;-1.60;99.90;;;;;;5067911;28;20193;-67
2022/12/10 00:37:35;;;;;;;16.97;15.27;;;-1.60;99.90;;;;;;5073130;28;20174;-67
2022/12/10 00:40:01;;;;;;;19.07;13.47;;;-1.60;99.90;;;;;;5058378;28;20228;-67
2022/12/10 00:42:26;;;;;;;13.47;12.03;;;-1.60;99.90;;;;;;5053015;28;20191;-67
2022/12/10 00:44:52;;;;;;;16.97;13.93;;;-1.60;99.90;;;;;;5065088;28;20217;-67
2022/12/10 00:47:18;;;;;;;17.60;15.47;;;-1.50;99.90;;;;;;5071586;28;20178;-67
2022/12/10 00:49:43;;;;;;;22.73;14.93;;;-1.50;99.90;;;;;;5060744;28;20186;-67
2022/12/10 00:52:09;;;;;;;15.70;13.23;;;-1.50;99.90;;;;;;5052272;28;20667;-67
2022/12/10 00:54:34;;;;;;;16.43;14.93;;;-1.50;99.90;;;;;;5060913;28;20184;-67
2022/12/10 00:57:00;;;;;;;20.03;13.57;;;-1.50;99.90;;;;;;5071334;28;20614;-67
2022/12/10 00:59:25;;;;;;;17.20;14.00;;;-1.50;99.90;;;;;;5063600;28;20702;-67
2022/12/10 01:01:51;;;;;;;19.27;13.50;;;-1.60;99.90;;;;;;5051268;28;20209;-67
2022/12/10 01:04:18;;;;;;;23.87;14.50;;;-1.60;99.90;;;;;;5059153;28;20178;-67
2022/12/10 01:06:49;;;;;;;14.83;13.37;;;-1.60;99.90;;;;;;5072587;28;20197;-67
2022/12/10 01:09:19;;;;;;;17.17;12.70;;;-1.60;99.90;;;;;;5064653;28;20290;-67
2022/12/10 01:11:46;;;;;;;15.87;13.47;;;-1.60;99.90;;;;;;5052269;28;20209;-67
2022/12/10 01:14:17;;;;;;;17.67;13.10;;;-1.70;99.90;;;;;;5058204;28;20716;-69
2022/12/10 01:16:43;;;;;;;21.90;12.90;;;-1.70;99.90;;;;;;5072471;28;20178;-67
2022/12/10 01:19:09;;;;;;;14.23;12.80;;;-1.70;99.90;;;;;;5071724;28;20696;-67
2022/12/10 01:21:35;;;;;;;22.43;12.80;;;-1.70;99.90;;;;;;5071875;28;20232;-67
2022/12/10 01:24:01;;;;;;;15.47;12.63;;;-1.70;99.90;;;;;;5068041;28;20179;-67
2022/12/10 01:26:29;;;;;;;20.37;14.70;;;-1.80;99.90;;;;;;5052153;28;20178;-67
2022/12/10 01:28:56;;;;;;;15.10;12.97;;;-1.90;99.90;;;;;;5055268;28;20265;-67
2022/12/10 01:31:24;;;;;;;15.30;13.47;;;-2.00;99.90;;;;;;5071661;28;20322;-67
2022/12/10 01:33:51;;;;;;;19.20;13.93;;;-2.10;99.90;;;;;;5069363;28;20195;-67
2022/12/10 01:36:22;;;;;;;19.23;13.10;;;-2.20;99.90;;;;;;5052189;28;20186;-67
2022/12/10 01:38:48;;;;;;;15.03;12.80;;;-2.20;99.90;;;;;;5052799;28;20210;-67
2022/12/10 01:41:27;;;;;;;16.67;11.17;;;-2.10;99.90;;;;;;5071537;28;20190;-67
2022/12/10 01:43:59;;;;;;;24.27;13.97;;;-2.20;99.90;;;;;;5069125;28;20178;-67
2022/12/10 01:46:29;;;;;;;20.53;12.20;;;-2.20;99.90;;;;;;5059017;28;20185;-67
2022/12/10 01:48:55;;;;;;;12.47;11.23;;;-2.20;99.90;;;;;;5069412;28;20178;-67
2022/12/10 01:51:22;;;;;;;19.43;13.70;;;-2.30;99.90;;;;;;5050074;28;20198;-67
2022/12/10 01:53:48;;;;;;;14.30;12.47;;;-2.30;99.90;;;;;;5052148;28;20198;-67
2022/12/10 01:56:16;;;;;;;21.27;12.57;;;-2.30;99.90;;;;;;5071642;28;20220;-67
2022/12/10 01:58:43;;;;;;;12.90;11.53;;;-2.30;99.90;;;;;;5071797;28;20214;-67
2022/12/10 02:01:13;;;;;;;12.07;10.93;;;-2.30;99.90;;;;;;5051487;28;20175;-67
2022/12/10 02:03:51;;;;;;;20.50;12.17;;;-2.40;99.90;;;;;;5065850;28;20166;-67
2022/12/10 02:06:31;;;;;;;12.00;10.83;;;-2.40;99.90;;;;;;5071589;28;20178;-67
2022/12/10 02:09:02;;;;;;;16.57;12.53;;;-2.50;99.90;;;;;;5054526;28;20659;-67
2022/12/10 02:11:48;;;;;;;16.20;12.53;;;-2.50;99.90;;;;;;5051183;28;20199;-67
2022/12/10 02:14:36;;;;;;;14.07;12.57;;;-2.40;99.90;;;;;;5071118;28;20186;-67
2022/12/10 02:17:07;;;;;;;13.07;12.00;;;-2.40;99.90;;;;;;5070052;28;20642;-66
2022/12/10 02:19:54;;;;;;;25.93;13.47;;;-2.30;99.90;;;;;;5058769;28;20206;-66
2022/12/10 02:22:22;;;;;;;12.33;10.93;;;-2.30;99.90;;;;;;5051594;28;20297;-67
2022/12/10 02:24:50;;;;;;;16.97;12.77;;;-2.20;99.90;;;;;;5051368;28;20590;-66
2022/12/10 02:27:53;;;;;;;17.43;14.40;;;-2.00;99.90;;;;;;5052528;28;20167;-66
2022/12/10 02:30:19;;;;;;;18.67;13.40;;;-1.80;99.90;;;;;;5046115;28;20323;-66
2022/12/10 02:32:48;;;;;;;22.37;14.83;;;-1.70;99.90;;;;;;5056001;28;20665;-66
2022/12/10 02:35:22;;;;;;;16.57;14.93;;;-1.50;99.90;;;;;;5071324;28;20343;-66
2022/12/10 02:37:58;;;;;;;18.17;13.83;;;-1.40;99.90;;;;;;5066070;28;20190;-66
2022/12/10 02:40:29;;;;;;;16.47;13.47;;;-1.20;99.90;;;;;;5051077;28;20208;-66
2022/12/10 02:42:55;;;;;;;21.47;14.77;;;-1.10;99.90;;;;;;5051483;28;20285;-69
2022/12/10 02:45:25;;;;;;;15.33;13.03;;;-1.00;99.90;;;;;;5051110;28;20252;-67
2022/12/10 02:47:52;;;;;;;17.10;13.40;;;-0.80;99.90;;;;;;5055566;28;20178;-66
2022/12/10 02:50:19;;;;;;;23.53;13.97;;;-0.70;99.90;;;;;;5069641;28;20178;-66
2022/12/10 02:52:45;;;;;;;25.93;16.80;;;-0.50;99.90;;;;;;5067451;28;20656;-66
2022/12/10 02:55:12;;;;;;;19.13;14.67;;;-0.40;99.90;;;;;;5050907;28;20270;-66
2022/12/10 02:57:50;;;;;;;16.43;13.63;;;-0.30;99.90;;;;;;5053377;28;20252;-66
2022/12/10 03:00:19;;;;;;;21.53;14.87;;;-0.20;99.90;;;;;;5070711;28;20182;-66
2022/12/10 03:03:22;;;;;;;24.97;16.03;;;-0.20;99.90;;;;;;5051918;28;20221;-67
2022/12/10 03:05:54;;;;;;;19.60;14.63;;;-0.10;99.90;;;;;;5050844;28;20209;-66
2022/12/10 03:08:31;;;;;;;18.73;14.43;;;-0.20;99.90;;;;;;5050973;28;20699;-66
2022/12/10 03:11:11;;;;;;;29.63;16.97;;;-0.10;99.90;;;;;;5054281;28;20201;-67
2022/12/10 03:13:43;;;;;;;22.27;15.27;;;-0.10;99.90;;;;;;5071103;28;20174;-67
2022/12/10 03:16:10;;;;;;;20.90;14.97;;;-0.10;99.90;;;;;;5068488;28;20240;-67
2022/12/10 03:18:37;;;;;;;18.83;14.43;;;0.00;99.90;;;;;;5054564;28;20199;-67
2022/12/10 03:21:05;;;;;;;27.53;14.33;;;0.10;99.90;;;;;;5058186;28;20174;-67
2022/12/10 03:23:35;;;;;;;25.53;13.97;;;0.20;99.90;;;;;;5074156;28;20186;-67
2022/12/10 03:26:01;;;;;;;24.60;14.13;;;0.20;99.90;;;;;;5069692;28;20175;-67
2022/12/10 03:28:31;;;;;;;20.77;15.37;;;0.30;99.90;;;;;;5054411;28;20207;-67
2022/12/10 03:30:57;;;;;;;15.97;13.30;;;0.30;99.90;;;;;;5057259;28;20205;-67
2022/12/10 03:33:23;;;;;;;26.70;17.03;;;0.40;99.90;;;;;;5074352;28;20257;-67
2022/12/10 03:35:50;;;;;;;20.83;14.00;;;0.40;99.90;;;;;;5071301;28;20261;-67
2022/12/10 03:38:15;;;;;;;20.10;15.50;;;0.40;99.90;;;;;;5054051;28;20195;-67
2022/12/10 03:40:41;;;;;;;23.57;15.73;;;0.40;99.90;;;;;;5054616;28;20265;-67
2022/12/10 03:43:07;;;;;;;20.90;16.47;;;0.50;99.90;;;;;;5073945;28;20198;-67
2022/12/10 03:45:33;;;;;;;22.50;14.30;;;0.40;99.90;;;;;;5073682;28;20177;-67
2022/12/10 03:47:58;;;;;;;26.27;15.17;;;0.40;99.90;;;;;;5053900;28;20174;-67
2022/12/10 03:50:24;;;;;;;22.47;14.90;;;0.40;99.90;;;;;;5053716;28;20643;-68
2022/12/10 03:52:49;;;;;;;18.33;14.17;;;0.40;99.90;;;;;;5054321;28;20207;-67
2022/12/10 03:55:15;;;;;;;24.83;17.10;;;0.40;99.90;;;;;;5053815;28;20182;-67
2022/12/10 03:57:41;;;;;;;22.10;16.73;;;0.40;99.90;;;;;;5053896;28;20179;-67
2022/12/10 04:00:08;;;;;;;20.03;14.40;;;0.30;99.90;;;;;;5053719;28;20182;-67
2022/12/10 04:02:33;;;;;;;21.87;15.53;;;0.30;99.90;;;;;;5069503;28;20210;-67
2022/12/10 04:04:59;;;;;;;22.47;14.53;;;0.30;99.90;;;;;;5062841;28;20185;-67
2022/12/10 04:07:24;;;;;;;22.70;15.90;;;0.20;99.90;;;;;;5053632;28;20698;-67
2022/12/10 04:09:50;;;;;;;20.33;14.90;;;0.20;99.90;;;;;;5061690;28;20700;-67
2022/12/10 04:12:16;;;;;;;22.30;13.20;;;0.20;99.90;;;;;;5073575;28;20205;-67
2022/12/10 04:17:25;;;;;;;19.87;15.13;;;0.20;99.90;;;;;;5053738;28;20186;-67
2022/12/10 04:19:51;;;;;;;27.20;17.33;;;0.20;99.90;;;;;;5061418;28;20209;-67
2022/12/10 04:27:44;;;;;;;23.43;14.87;;;0.40;99.90;;;;;;5053065;28;20252;-67
2022/12/10 04:30:11;;;;;;;19.17;15.20;;;0.40;99.90;;;;;;5063753;28;20186;-67
2022/12/10 04:32:37;;;;;;;21.13;15.20;;;0.30;99.90;;;;;;5073284;28;20201;-67
2022/12/10 04:35:03;;;;;;;22.17;14.17;;;0.40;99.90;;;;;;5063488;28;20175;-67
2022/12/10 04:37:29;;;;;;;21.23;14.37;;;0.40;99.90;;;;;;5053138;28;20261;-67
2022/12/10 04:39:55;;;;;;;20.90;16.53;;;0.40;99.90;;;;;;5061128;28;20289;-67
2022/12/10 04:42:21;;;;;;;19.97;14.33;;;0.40;99.90;;;;;;5072873;28;20269;-67
2022/12/10 04:44:47;;;;;;;21.57;16.70;;;0.50;99.90;;;;;;5065712;28;20240;-67
2022/12/10 04:47:13;;;;;;;20.63;15.67;;;0.50;99.90;;;;;;5052861;28;20175;-67
2022/12/10 04:49:39;;;;;;;20.27;14.80;;;0.60;99.90;;;;;;5059006;28;20186;-67
2022/12/10 04:52:06;;;;;;;24.50;17.10;;;0.60;99.90;;;;;;5072780;28;20201;-67
2022/12/10 04:54:32;;;;;;;25.03;15.77;;;0.60;99.90;;;;;;5066488;28;20210;-67
2022/12/10 04:56:57;;;;;;;16.67;14.80;;;0.50;99.90;;;;;;5052747;28;20567;-67
2022/12/10 04:59:23;;;;;;;17.27;13.33;;;0.40;99.90;;;;;;5054678;28;20205;-68
2022/12/10 05:01:49;;;;;;;17.03;13.10;;;0.40;99.90;;;;;;5072393;28;20194;-67
2022/12/10 05:04:16;;;;;;;22.70;14.77;;;0.30;99.90;;;;;;5071797;28;20174;-67
2022/12/10 05:06:42;;;;;;;16.27;14.13;;;0.30;99.90;;;;;;5072528;28;20257;-67
2022/12/10 05:09:09;;;;;;;23.37;14.10;;;0.30;99.90;;;;;;5063144;28;20261;-67
2022/12/10 05:11:35;;;;;;;24.53;15.50;;;0.30;99.90;;;;;;5050961;28;20228;-68
2022/12/10 05:14:01;;;;;;;20.63;14.80;;;0.30;99.90;;;;;;5060562;28;20667;-67
2022/12/10 05:16:29;;;;;;;18.53;14.07;;;0.30;99.90;;;;;;5072368;28;20180;-67
2022/12/10 05:18:55;;;;;;;24.77;15.93;;;0.30;99.90;;;;;;5065366;28;20214;-67
2022/12/10 05:21:23;;;;;;;24.53;14.40;;;0.40;99.90;;;;;;5051745;28;20211;-68
2022/12/10 05:23:51;;;;;;;16.63;13.60;;;0.40;99.90;;;;;;5058185;28;20182;-67
2022/12/10 05:26:21;;;;;;;22.23;15.67;;;0.40;99.90;;;;;;5072120;28;20166;-68
2022/12/10 05:28:55;;;;;;;30.17;16.37;;;0.30;99.90;;;;;;5066666;28;20182;-67
2022/12/10 05:31:26;;;;;;;21.73;14.73;;;0.30;99.90;;;;;;5051771;28;20297;-68
2022/12/10 05:33:53;;;;;;;18.90;13.43;;;0.30;99.90;;;;;;5056965;28;20595;-67
2022/12/10 05:36:20;;;;;;;22.03;16.00;;;0.40;99.90;;;;;;5071994;28;20166;-67
2022/12/10 05:38:47;;;;;;;27.30;18.50;;;0.40;99.90;;;;;;5066788;28;20211;-68
2022/12/10 05:41:20;;;;;;;22.20;15.67;;;0.40;99.90;;;;;;5051502;28;20542;-67
2022/12/10 05:43:46;;;;;;;34.57;17.00;;;0.40;99.90;;;;;;5056903;28;20210;-68
2022/12/10 05:46:20;;;;;;;31.17;16.93;;;0.40;99.90;;;;;;5071794;28;20178;-67
2022/12/10 05:48:46;;;;;;;26.13;15.30;;;0.30;99.90;;;;;;5067147;28;20269;-67
2022/12/10 05:51:15;;;;;;;35.93;18.47;;;0.20;99.90;;;;;;5051254;28;20336;-68
2022/12/10 05:53:41;;;;;;;29.20;16.73;;;0.20;99.90;;;;;;5055805;28;20518;-67
2022/12/10 05:56:13;;;;;;;29.77;16.00;;;0.20;99.90;;;;;;5071882;28;20174;-67
2022/12/10 05:58:40;;;;;;;24.90;15.13;;;0.20;99.90;;;;;;5068153;28;20210;-68
2022/12/10 06:01:15;;;;;;;20.30;14.27;;;0.20;99.90;;;;;;5051192;28;20173;-67
2022/12/10 06:03:41;;;;;;;27.97;17.03;;;0.10;99.90;;;;;;5055515;28;20173;-67
2022/12/10 06:06:07;;;;;;;27.07;17.00;;;0.10;99.90;;;;;;5071532;28;20166;-66
2022/12/10 06:08:33;;;;;;;37.93;16.70;;;0.10;99.90;;;;;;5069452;28;20174;-67
2022/12/10 06:11:08;;;;;;;25.77;15.43;;;0.00;99.90;;;;;;5051181;28;20186;-67
2022/12/10 06:13:34;;;;;;;19.10;13.87;;;0.00;99.90;;;;;;5054217;28;20178;-67
2022/12/10 06:16:03;;;;;;;25.93;14.23;;;0.00;99.90;;;;;;5070029;28;20178;-67
2022/12/10 06:18:29;;;;;;;22.80;16.27;;;-0.10;99.90;;;;;;5069814;28;20216;-67
2022/12/10 06:20:54;;;;;;;24.40;15.97;;;-0.10;99.90;;;;;;5054340;28;20178;-66
2022/12/10 06:23:20;;;;;;;26.80;17.60;;;-0.20;99.90;;;;;;5051405;28;20174;-67
2022/12/10 06:25:45;;;;;;;27.27;15.53;;;-0.20;99.90;;;;;;5051362;28;20175;-67
2022/12/10 06:28:11;;;;;;;18.73;14.17;;;-0.30;99.90;;;;;;5051233;28;20527;-67
2022/12/10 06:30:36;;;;;;;28.97;16.13;;;-0.30;99.90;;;;;;5051491;28;20190;-67
2022/12/10 06:33:02;;;;;;;20.30;14.30;;;-0.40;99.90;;;;;;5051154;28;20256;-68
2022/12/10 06:35:28;;;;;;;24.27;14.03;;;-0.50;99.90;;;;;;5066515;28;20186;-67
2022/12/10 06:37:53;;;;;;;25.83;17.30;;;-0.60;99.90;;;;;;5071097;28;20547;-67
2022/12/10 06:40:19;;;;;;;36.57;15.67;;;-0.60;99.90;;;;;;5056530;28;20662;-67
2022/12/10 06:42:44;;;;;;;20.73;13.30;;;-0.70;99.90;;;;;;5051117;28;20672;-67
2022/12/10 06:45:10;;;;;;;24.07;14.43;;;-0.80;99.90;;;;;;5063534;28;20186;-67
2022/12/10 06:47:36;;;;;;;27.33;15.47;;;-0.80;99.90;;;;;;5071430;28;20163;-67
2022/12/10 06:50:02;;;;;;;22.13;13.27;;;-0.80;99.90;;;;;;5061290;28;20193;-67
2022/12/10 06:52:28;;;;;;;24.97;14.13;;;-0.80;99.90;;;;;;5055239;28;20612;-67
2022/12/10 06:54:55;;;;;;;26.33;18.67;;;-0.80;99.90;;;;;;5064763;28;20189;-67
2022/12/10 06:57:21;;;;;;;33.30;16.83;;;-0.90;99.90;;;;;;5075252;28;20170;-67
2022/12/10 06:59:46;;;;;;;23.83;15.00;;;-0.90;99.90;;;;;;5064784;28;20198;-67
2022/12/10 07:02:12;;;;;;;29.70;16.53;;;-0.90;99.90;;;;;;5054831;28;20195;-67
2022/12/10 07:04:38;;;;;;;28.43;13.60;;;-0.90;99.90;;;;;;5062533;28;20201;-67
2022/12/10 07:07:05;;;;;;;28.97;15.73;;;-0.80;99.90;;;;;;5074868;28;20215;-67
2022/12/10 07:09:31;;;;;;;22.97;13.57;;;-0.80;99.90;;;;;;5067385;28;20183;-67
2022/12/10 07:11:57;;;;;;;20.90;14.77;;;-0.80;99.90;;;;;;5054667;28;20691;-67
2022/12/10 07:14:23;;;;;;;22.00;13.77;;;-0.90;99.90;;;;;;5056001;28;20186;-66
2022/12/10 07:16:48;;;;;;;29.80;16.20;;;-0.90;99.90;;;;;;5071990;28;20178;-67
2022/12/10 07:19:14;;;;;;;31.03;16.13;;;-0.90;99.90;;;;;;5070587;28;20234;-67
2022/12/10 07:21:41;;;;;;;30.67;16.77;;;-0.80;99.90;;;;;;5054611;28;20285;-67
2022/12/10 07:24:11;;;;;;;38.97;19.20;;;-0.80;99.90;;;;;;5056091;28;20208;-67
2022/12/10 07:26:40;;;;;;;29.63;15.90;;;-0.80;99.90;;;;;;5069382;28;20175;-67
2022/12/10 07:29:08;;;;;;;42.27;16.20;;;-0.70;99.90;;;;;;5053762;28;20275;-67
2022/12/10 07:31:35;;;;;;;36.17;17.80;;;-0.70;99.90;;;;;;5054536;28;20190;-67
2022/12/10 07:34:01;;;;;;;31.37;18.50;;;-0.70;99.90;;;;;;5053897;28;20686;-67
2022/12/10 07:36:27;;;;;;;41.17;15.80;;;-0.60;99.90;;;;;;5074662;28;20189;-68
2022/12/10 07:38:54;;;;;;;40.40;19.43;;;-0.50;99.90;;;;;;5074804;28;20685;-67
2022/12/10 07:41:20;;;;;;;49.63;17.70;;;-0.50;99.90;;;;;;5073569;28;20190;-67
2022/12/10 07:43:47;;;;;;;36.70;18.83;;;-0.40;99.90;;;;;;5072952;28;20193;-67
2022/12/10 07:46:16;;;;;;;36.23;20.90;;;-0.30;99.90;;;;;;5073441;28;20173;-67
2022/12/10 07:48:43;;;;;;;35.00;18.13;;;-0.30;99.90;;;;;;5074163;28;20178;-67
2022/12/10 07:51:10;;;;;;;36.53;18.20;;;-0.20;99.90;;;;;;5056171;28;20179;-68
2022/12/10 07:53:35;;;;;;;28.37;16.00;;;-0.20;99.90;;;;;;5053996;28;20221;-68
2022/12/10 07:56:02;;;;;;;43.27;18.40;;;-0.10;99.90;;;;;;5054675;28;20186;-67
2022/12/10 07:58:27;;;;;;;44.10;17.57;;;-0.10;99.90;;;;;;5053698;28;20291;-67
2022/12/10 08:00:53;;;;;;;44.17;17.47;;;-0.10;99.90;;;;;;5066840;28;20646;-67
2022/12/10 08:03:19;;;;;;;37.10;17.07;;;-0.30;99.90;;;;;;5073746;28;20635;-67
2022/12/10 08:05:44;;;;;;;31.93;16.90;;;-0.30;99.90;;;;;;5060680;28;20174;-67
2022/12/10 08:08:10;;;;;;;33.77;16.07;;;-0.30;99.90;;;;;;5053878;28;20194;-67
2022/12/10 08:10:39;;;;;;;28.00;17.97;;;-0.20;99.90;;;;;;5065235;28;20202;-67
2022/12/10 08:13:05;;;;;;;41.97;19.27;;;-0.20;99.90;;;;;;5073505;28;20198;-67
2022/12/10 08:15:32;;;;;;;35.23;18.50;;;-0.10;99.90;;;;;;5071365;28;20550;-67
2022/12/10 08:17:57;;;;;;;34.60;17.03;;;-0.10;99.90;;;;;;5073240;28;20174;-67
2022/12/10 08:20:24;;;;;;;31.10;17.43;;;-0.10;99.90;;;;;;5072837;28;20177;-68
2022/12/10 08:22:50;;;;;;;42.07;20.83;;;-0.10;99.90;;;;;;5073982;28;20198;-67
2022/12/10 08:25:15;;;;;;;26.53;17.40;;;0.00;99.90;;;;;;5063727;28;20549;-67
2022/12/10 08:27:41;;;;;;;32.93;15.67;;;0.00;99.90;;;;;;5048619;28;20678;-67
2022/12/10 08:30:07;;;;;;;45.03;18.00;;;0.00;99.90;;;;;;5048472;28;20661;-67
2022/12/10 08:32:33;;;;;;;31.40;16.00;;;0.00;99.90;;;;;;5073433;28;20602;-67
2022/12/10 08:34:58;;;;;;;34.57;20.33;;;0.00;99.90;;;;;;5066047;28;20206;-67
2022/12/10 08:37:24;;;;;;;42.40;19.97;;;0.00;99.90;;;;;;5053391;28;20175;-68
2022/12/10 08:39:50;;;;;;;32.47;17.90;;;-0.10;99.90;;;;;;5054052;28;20206;-67
2022/12/10 08:42:15;;;;;;;43.47;19.60;;;0.00;99.90;;;;;;5052958;28;20765;-67
2022/12/10 08:44:41;;;;;;;39.03;19.60;;;0.00;99.90;;;;;;5057207;28;20186;-67
2022/12/10 08:47:06;;;;;;;24.83;16.33;;;0.00;99.90;;;;;;5073520;28;20178;-67
2022/12/10 08:49:32;;;;;;;39.90;21.83;;;0.00;99.90;;;;;;5052775;28;20182;-67
2022/12/10 08:51:58;;;;;;;42.27;21.53;;;-0.10;99.90;;;;;;5053023;28;20193;-67
2022/12/10 08:54:23;;;;;;;41.33;19.97;;;-0.10;99.90;;;;;;5054625;28;20254;-68
2022/12/10 08:56:49;;;;;;;34.87;16.93;;;-0.10;99.90;;;;;;5072234;28;20662;-67
2022/12/10 08:59:14;;;;;;;44.67;21.93;;;0.00;99.90;;;;;;5073660;28;20205;-68
2022/12/10 09:01:40;;;;;;;46.27;19.90;;;0.00;99.90;;;;;;5055232;28;20656;-68
2022/12/10 09:04:06;;;;;;;36.87;18.03;;;0.00;99.90;;;;;;5053646;28;20203;-68
2022/12/10 09:06:31;;;;;;;34.17;19.17;;;0.00;99.90;;;;;;5053329;28;20521;-68
2022/12/10 09:08:57;;;;;;;42.63;20.40;;;0.10;99.90;;;;;;5052950;28;20224;-68
2022/12/10 09:11:31;;;;;;;50.37;20.63;;;0.30;99.90;;;;;;5069437;28;20205;-68
2022/12/10 09:13:57;;;;;;;43.50;23.27;;;0.50;99.90;;;;;;5073154;28;20170;-68
2022/12/10 09:16:35;;;;;;;38.80;21.77;;;0.60;99.90;;;;;;5055253;28;20213;-68
2022/12/10 09:19:01;;;;;;;36.00;17.80;;;0.70;99.90;;;;;;5054896;28;20656;-67
2022/12/10 09:21:28;;;;;;;45.33;20.90;;;0.80;99.90;;;;;;5058228;28;20203;-67
2022/12/10 09:23:53;;;;;;;42.47;22.17;;;0.80;99.90;;;;;;5047135;28;20198;-68
2022/12/10 09:26:20;;;;;;;41.57;21.03;;;0.80;99.90;;;;;;5087909;28;20174;-68
2022/12/10 09:28:46;;;;;;;44.60;23.43;;;0.90;99.90;;;;;;5079188;28;20179;-68
2022/12/10 09:31:14;;;;;;;41.73;21.53;;;0.90;99.90;;;;;;5079532;28;20222;-68
2022/12/10 09:33:40;;;;;;;44.70;20.47;;;1.00;99.90;;;;;;5081781;28;20184;-68
2022/12/10 09:36:07;;;;;;;39.37;22.07;;;0.90;99.90;;;;;;5058106;28;20213;-68
2022/12/10 09:38:38;;;;;;;51.27;21.17;;;0.80;99.90;;;;;;5059431;28;20202;-68
2022/12/10 09:41:14;;;;;;;33.00;20.17;;;0.80;99.90;;;;;;5068799;28;20202;-68
2022/12/10 09:43:51;;;;;;;48.40;22.37;;;0.90;99.90;;;;;;5072264;28;20170;-68
2022/12/10 09:46:16;;;;;;;33.27;19.73;;;0.90;99.90;;;;;;5071728;28;20173;-68
2022/12/10 09:48:48;;;;;;;40.87;21.80;;;0.90;99.90;;;;;;5075229;28;20174;-67
2022/12/10 09:51:20;;;;;;;36.80;22.00;;;1.00;99.90;;;;;;5077404;28;20202;-67
2022/12/10 09:53:47;;;;;;;56.57;23.77;;;1.10;99.90;;;;;;5079019;28;20170;-67
2022/12/10 09:56:31;;;;;;;49.00;21.43;;;1.20;99.90;;;;;;5044354;28;20183;-67
2022/12/10 09:59:00;;;;;;;44.73;21.33;;;1.20;99.90;;;;;;5036954;28;20203;-67
2022/12/10 10:01:29;;;;;;;41.20;21.63;;;1.40;99.90;;;;;;5071006;28;20200;-68
2022/12/10 10:03:55;;;;;;;37.43;18.87;;;1.40;99.90;;;;;;5077997;28;20697;-67
2022/12/10 10:06:23;;;;;;;50.30;22.37;;;1.50;99.90;;;;;;5074251;28;20174;-67
2022/12/10 10:08:52;;;;;;;33.67;17.57;;;1.50;99.90;;;;;;5077725;28;20692;-68
2022/12/10 10:11:22;;;;;;;44.67;22.83;;;1.60;99.90;;;;;;5063288;28;20203;-67
2022/12/10 10:14:15;;;;;;;36.87;21.17;;;1.50;99.90;;;;;;5058657;28;20179;-67
2022/12/10 10:16:48;;;;;;;35.23;19.47;;;1.50;99.90;;;;;;5059028;28;20186;-67
2022/12/10 10:19:17;;;;;;;44.47;21.33;;;1.40;99.90;;;;;;5058288;28;20195;-67
2022/12/10 10:21:46;;;;;;;43.30;21.73;;;1.40;99.90;;;;;;5071150;28;20288;-67
2022/12/10 10:24:17;;;;;;;39.93;20.47;;;1.40;99.90;;;;;;5058361;28;20228;-67
2022/12/10 10:26:45;;;;;;;38.50;20.30;;;1.50;99.90;;;;;;5071515;28;20264;-67
2022/12/10 10:29:17;;;;;;;44.10;19.33;;;1.40;99.90;;;;;;5077324;28;20174;-67
2022/12/10 10:31:43;;;;;;;42.87;19.43;;;1.50;99.90;;;;;;5065067;28;20206;-67
2022/12/10 10:34:21;;;;;;;33.70;21.60;;;1.70;99.90;;;;;;5057635;28;20171;-67
2022/12/10 10:36:47;;;;;;;37.63;20.37;;;1.70;99.90;;;;;;5069943;28;20219;-67
2022/12/10 10:39:16;;;;;;;44.13;19.87;;;1.60;99.90;;;;;;5077298;28;20228;-67
2022/12/10 10:41:42;;;;;;;42.63;21.43;;;1.70;99.90;;;;;;5065328;28;20289;-68
2022/12/10 10:44:16;;;;;;;42.77;21.37;;;1.70;99.90;;;;;;5056826;28;20171;-67
2022/12/10 10:46:44;;;;;;;42.10;21.03;;;1.80;99.90;;;;;;5058670;28;20590;-67
2022/12/10 10:49:24;;;;;;;47.43;22.53;;;1.90;99.90;;;;;;5057362;28;20206;-67
2022/12/10 10:51:50;;;;;;;39.00;19.27;;;2.00;99.90;;;;;;5069886;28;20285;-65
2022/12/10 10:54:37;;;;;;;34.57;21.30;;;1.90;99.90;;;;;;5075769;28;20997;-65
2022/12/10 10:57:23;;;;;;;38.73;21.50;;;1.80;99.90;;;;;;5074694;28;20194;-65
2022/12/10 10:59:52;;;;;;;48.27;20.57;;;1.80;99.90;;;;;;5057081;28;20203;-66
2022/12/10 11:02:32;;;;;;;32.17;20.40;;;1.90;99.90;;;;;;5072570;28;20197;-65
2022/12/10 11:05:08;;;;;;;36.53;19.80;;;1.90;99.90;;;;;;5077421;28;20238;-66
2022/12/10 11:07:37;;;;;;;33.23;19.97;;;1.80;99.90;;;;;;5059971;28;20189;-68
2022/12/10 11:10:18;;;;;;;42.60;19.60;;;1.80;99.90;;;;;;5056481;28;20605;-65
2022/12/10 11:12:54;;;;;;;37.07;21.77;;;1.80;99.90;;;;;;5056663;28;20612;-68
2022/12/10 11:15:35;;;;;;;28.73;19.37;;;1.90;99.90;;;;;;5057757;28;20174;-65
2022/12/10 11:18:02;;;;;;;32.70;18.47;;;1.90;99.90;;;;;;5036003;28;20183;-68
2022/12/10 11:20:33;;;;;;;41.03;20.73;;;1.90;99.90;;;;;;5037265;28;20179;-66
2022/12/10 11:23:02;;;;;;;39.13;22.50;;;1.90;99.90;;;;;;5075249;28;20245;-66
2022/12/10 11:25:48;;;;;;;43.40;18.77;;;2.00;99.90;;;;;;5077775;28;20192;-66
2022/12/10 11:28:29;;;;;;;33.60;20.30;;;2.10;99.90;;;;;;5060736;28;20179;-67
2022/12/10 11:31:18;;;;;;;35.47;18.77;;;2.10;99.90;;;;;;5058866;28;20174;-66
2022/12/10 11:33:57;;;;;;;39.33;19.37;;;2.30;99.90;;;;;;5058752;28;20194;-67
2022/12/10 11:36:41;;;;;;;32.97;19.00;;;2.40;99.90;;;;;;5068471;28;20174;-66
2022/12/10 11:39:10;;;;;;;34.40;19.07;;;2.50;99.90;;;;;;5081242;28;20218;-66
2022/12/10 11:41:51;;;;;;;51.43;24.37;;;2.50;99.90;;;;;;5073653;28;20703;-66
2022/12/10 11:44:29;;;;;;;50.43;22.43;;;2.60;99.90;;;;;;5062073;28;20553;-66
2022/12/10 11:47:17;;;;;;;59.50;28.67;;;2.70;99.90;;;;;;5071126;28;20189;-66
2022/12/10 11:49:52;;;;;;;40.17;23.13;;;2.80;99.90;;;;;;5081834;28;20239;-66
2022/12/10 11:52:35;;;;;;;56.80;25.93;;;2.80;99.90;;;;;;5069031;28;20206;-66
2022/12/10 11:55:07;;;;;;;37.73;20.10;;;2.70;99.90;;;;;;5060354;28;20187;-67
2022/12/10 11:57:56;;;;;;;39.43;23.87;;;2.60;99.90;;;;;;5076253;28;20186;-67
2022/12/10 12:00:24;;;;;;;38.97;20.87;;;2.60;99.90;;;;;;5082039;28;20198;-67
2022/12/10 12:03:08;;;;;;;41.63;22.27;;;2.60;99.90;;;;;;5063943;28;20194;-67
2022/12/10 12:06:05;;;;;;;40.83;21.20;;;2.60;99.90;;;;;;5062241;28;20179;-67
2022/12/10 12:08:46;;;;;;;47.37;20.40;;;2.60;99.90;;;;;;5039254;28;20176;-67
2022/12/10 12:11:30;;;;;;;32.27;19.93;;;2.60;99.90;;;;;;5046625;28;20197;-67
2022/12/10 12:14:07;;;;;;;35.37;19.70;;;2.60;99.90;;;;;;5060813;28;20173;-67
2022/12/10 12:17:13;;;;;;;30.77;17.80;;;2.60;99.90;;;;;;5067604;28;20173;-67
2022/12/10 12:19:46;;;;;;;30.13;18.67;;;2.50;99.90;;;;;;5078931;28;20644;-67
2022/12/10 12:22:37;;;;;;;43.00;18.53;;;2.60;99.90;;;;;;5067722;28;20207;-67
2022/12/10 12:25:22;;;;;;;39.37;20.30;;;2.70;99.90;;;;;;5060707;28;20171;-67
2022/12/10 12:28:08;;;;;;;40.60;21.33;;;2.90;99.90;;;;;;5078614;28;20193;-67
2022/12/10 12:30:35;;;;;;;37.97;19.83;;;2.90;99.90;;;;;;5060416;28;20163;-67
2022/12/10 12:33:19;;;;;;;51.10;24.47;;;2.80;99.90;;;;;;5076156;28;20205;-67
2022/12/10 12:35:50;;;;;;;40.23;21.53;;;2.80;99.90;;;;;;5074997;28;20228;-67
2022/12/10 12:38:40;;;;;;;40.63;23.23;;;2.80;99.90;;;;;;5060212;28;20203;-67
2022/12/10 12:41:24;;;;;;;41.03;19.20;;;2.90;99.90;;;;;;5059785;28;20186;-68
2022/12/10 12:44:02;;;;;;;54.80;23.73;;;3.00;99.90;;;;;;5067437;28;20174;-67
2022/12/10 12:46:41;;;;;;;36.83;21.70;;;3.20;99.90;;;;;;5074301;28;20167;-67
2022/12/10 12:49:32;;;;;;;33.43;20.40;;;3.20;99.90;;;;;;5060339;28;20182;-67
2022/12/10 12:52:15;;;;;;;41.20;22.67;;;3.20;99.90;;;;;;5069494;28;20550;-67
2022/12/10 12:54:41;;;;;;;46.87;21.07;;;3.20;99.90;;;;;;5079656;28;20293;-67